Time;durP1;ratioP1;P1;durP2;ratioP2;P2;SDS_P1;SDS_P2;PMS_P1;PMS_P2;Temp;Humidity;BMP_temperature;BMP_pressure;BME280_temperature;BME280_humidity;BME280_pressure;Samples;Min_cycle;Max_cycle;Signal;HPM_P1;HPM_P2
2023/08/15 00:00:14;;;;;;;15.60;3.90;;;19.90;78.60;;;;;;5093119;28;20683;-74
2023/08/15 00:02:40;;;;;;;8.20;3.67;;;19.90;78.90;;;;;;5093100;28;20168;-75
2023/08/15 00:05:06;;;;;;;12.63;3.85;;;19.90;83.70;;;;;;5093192;28;20194;-75
2023/08/15 00:07:32;;;;;;;11.60;3.78;;;19.80;91.30;;;;;;5093172;28;20650;-74
2023/08/15 00:09:57;;;;;;;10.50;3.92;;;19.80;92.70;;;;;;5092709;28;20176;-75
2023/08/15 00:12:23;;;;;;;12.20;4.00;;;19.70;94.30;;;;;;5093051;28;20551;-74
2023/08/15 00:14:49;;;;;;;11.13;3.88;;;19.80;94.20;;;;;;5091867;28;20177;-74
2023/08/15 00:17:15;;;;;;;15.82;3.40;;;19.80;95.00;;;;;;5092813;28;20693;-75
2023/08/15 00:19:40;;;;;;;10.75;4.05;;;19.80;93.80;;;;;;5093057;28;20199;-76
2023/08/15 00:22:06;;;;;;;7.38;3.70;;;19.80;94.30;;;;;;5091827;28;20684;-74
2023/08/15 00:24:32;;;;;;;10.88;3.40;;;19.80;94.60;;;;;;5092770;28;20199;-74
2023/08/15 00:26:57;;;;;;;10.30;3.67;;;19.80;95.00;;;;;;5093047;28;20527;-74
2023/08/15 00:29:23;;;;;;;9.27;3.20;;;19.90;93.30;;;;;;5092994;28;20591;-74
2023/08/15 00:31:48;;;;;;;6.60;3.50;;;19.90;91.80;;;;;;5093059;28;20176;-74
2023/08/15 00:34:14;;;;;;;9.95;3.40;;;19.90;89.80;;;;;;5096664;28;20176;-74
2023/08/15 00:36:40;;;;;;;7.75;3.22;;;19.90;92.00;;;;;;5096865;28;20192;-75
2023/08/15 00:39:05;;;;;;;12.18;3.70;;;19.90;91.90;;;;;;5096135;28;20200;-76
2023/08/15 00:41:31;;;;;;;14.18;3.92;;;19.90;91.20;;;;;;5096718;28;20628;-74
2023/08/15 00:43:58;;;;;;;9.23;3.42;;;19.80;92.90;;;;;;5096556;28;20168;-74
2023/08/15 00:46:25;;;;;;;6.68;3.47;;;19.90;94.40;;;;;;5096637;28;20249;-74
2023/08/15 00:48:52;;;;;;;9.63;3.60;;;19.90;91.80;;;;;;5095062;28;20586;-75
2023/08/15 00:51:18;;;;;;;12.45;3.60;;;19.90;92.30;;;;;;5096420;28;20191;-75
2023/08/15 00:53:44;;;;;;;10.70;3.80;;;20.00;90.70;;;;;;5096076;28;20172;-74
2023/08/15 00:56:10;;;;;;;11.45;3.45;;;19.90;89.40;;;;;;5096253;28;20170;-74
2023/08/15 00:58:36;;;;;;;9.00;4.22;;;20.00;89.30;;;;;;5096191;28;20216;-74
2023/08/15 01:01:03;;;;;;;11.23;4.00;;;20.00;87.10;;;;;;5096365;28;20175;-74
2023/08/15 01:03:29;;;;;;;9.57;4.20;;;19.90;88.80;;;;;;5096105;28;20583;-75
2023/08/15 01:05:55;;;;;;;12.65;4.03;;;19.90;90.30;;;;;;5095673;28;20168;-75
2023/08/15 01:08:21;;;;;;;12.30;4.10;;;19.90;90.70;;;;;;5094895;28;20175;-74
2023/08/15 01:10:47;;;;;;;12.13;3.78;;;19.80;92.00;;;;;;5096284;28;20171;-75
2023/08/15 01:13:25;;;;;;;10.00;4.00;;;19.80;92.60;;;;;;5096068;28;20267;-74
2023/08/15 01:15:52;;;;;;;11.88;4.15;;;19.80;92.60;;;;;;5095747;28;20178;-74
2023/08/15 01:18:25;;;;;;;8.70;3.95;;;19.90;91.00;;;;;;5095582;28;20224;-74
2023/08/15 01:20:53;;;;;;;13.25;3.72;;;19.90;90.00;;;;;;5094459;28;20175;-74
2023/08/15 01:23:27;;;;;;;10.63;4.18;;;19.90;90.50;;;;;;5095709;28;20179;-74
2023/08/15 01:25:57;;;;;;;11.38;4.05;;;19.90;90.50;;;;;;5095729;28;20171;-73
2023/08/15 01:28:23;;;;;;;15.75;4.43;;;19.80;93.70;;;;;;5095563;28;20627;-73
2023/08/15 01:31:07;;;;;;;9.82;4.05;;;19.80;93.10;;;;;;5095474;28;20190;-74
2023/08/15 01:33:55;;;;;;;10.98;3.85;;;19.80;94.70;;;;;;5094193;28;20259;-75
2023/08/15 01:36:32;;;;;;;11.70;4.10;;;19.80;94.50;;;;;;5080901;28;20179;-74
2023/08/15 01:39:04;;;;;;;8.93;4.07;;;19.80;94.50;;;;;;5095256;28;20203;-74
2023/08/15 01:41:35;;;;;;;13.15;4.75;;;19.80;93.80;;;;;;5095313;28;20167;-75
2023/08/15 01:44:03;;;;;;;13.50;4.82;;;19.70;96.50;;;;;;5094652;28;20286;-74
2023/08/15 01:46:28;;;;;;;10.77;4.40;;;19.70;98.00;;;;;;5095651;28;20243;-75
2023/08/15 01:48:54;;;;;;;14.93;4.22;;;19.80;97.20;;;;;;5095348;28;20259;-75
2023/08/15 01:51:20;;;;;;;10.32;3.90;;;19.80;98.40;;;;;;5093512;28;20219;-75
2023/08/15 01:53:46;;;;;;;8.35;3.67;;;19.70;99.40;;;;;;5095077;28;20172;-75
2023/08/15 01:56:13;;;;;;;10.18;3.75;;;19.80;98.20;;;;;;5095182;28;20216;-74
2023/08/15 01:58:39;;;;;;;13.63;3.90;;;19.80;99.90;;;;;;5094872;28;20195;-74
2023/08/15 02:01:05;;;;;;;9.82;3.85;;;19.70;99.90;;;;;;5095032;28;20168;-74
2023/08/15 02:03:30;;;;;;;11.50;3.90;;;19.60;99.90;;;;;;5093750;28;20207;-73
2023/08/15 02:05:56;;;;;;;8.75;3.50;;;19.70;99.90;;;;;;5094603;28;20198;-74
2023/08/15 02:08:22;;;;;;;10.75;3.83;;;19.70;99.90;;;;;;5094805;28;20168;-74
2023/08/15 02:10:49;;;;;;;10.05;3.90;;;19.70;99.90;;;;;;5094921;28;20172;-73
2023/08/15 02:13:15;;;;;;;14.73;3.90;;;19.80;99.90;;;;;;5094656;28;20163;-74
2023/08/15 02:15:41;;;;;;;11.55;3.78;;;19.80;99.90;;;;;;5094821;28;20263;-74
2023/08/15 02:18:07;;;;;;;12.50;3.70;;;19.90;99.90;;;;;;5094285;28;20741;-74
2023/08/15 02:20:32;;;;;;;11.50;3.67;;;19.90;99.90;;;;;;5094380;28;20174;-74
2023/08/15 02:22:58;;;;;;;12.95;3.88;;;20.00;97.90;;;;;;5093369;28;20210;-74
2023/08/15 02:25:24;;;;;;;8.93;3.70;;;20.00;96.20;;;;;;5094437;28;20259;-73
2023/08/15 02:27:50;;;;;;;8.32;3.50;;;20.10;96.50;;;;;;5094322;28;20520;-73
2023/08/15 02:30:15;;;;;;;6.68;3.42;;;20.10;92.90;;;;;;5094742;28;20254;-73
2023/08/15 02:32:41;;;;;;;10.80;3.85;;;20.10;91.80;;;;;;5094367;28;20176;-74
2023/08/15 02:35:07;;;;;;;9.57;4.03;;;20.10;93.10;;;;;;5093947;28;20296;-73
2023/08/15 02:37:34;;;;;;;9.48;3.53;;;20.10;91.90;;;;;;5094193;28;20195;-73
2023/08/15 02:40:00;;;;;;;8.80;3.58;;;20.10;92.90;;;;;;5094039;28;20244;-73
2023/08/15 02:42:25;;;;;;;9.15;3.80;;;20.20;92.20;;;;;;5092852;28;20191;-73
2023/08/15 02:44:51;;;;;;;10.95;3.92;;;20.20;91.40;;;;;;5094256;28;20253;-72
2023/08/15 02:47:16;;;;;;;12.27;3.95;;;20.20;90.30;;;;;;5094172;28;20197;-73
2023/08/15 02:49:42;;;;;;;8.43;3.70;;;20.20;91.80;;;;;;5093530;28;20203;-73
2023/08/15 02:52:07;;;;;;;13.70;3.83;;;20.20;91.10;;;;;;5093959;28;20175;-73
2023/08/15 02:54:33;;;;;;;9.93;3.45;;;20.20;91.30;;;;;;5094003;28;20168;-73
2023/08/15 02:56:59;;;;;;;15.55;5.60;;;20.20;90.60;;;;;;5091678;28;20676;-73
2023/08/15 02:59:24;;;;;;;10.07;3.90;;;20.20;86.30;;;;;;5093970;28;20257;-73
2023/08/15 03:01:50;;;;;;;10.40;3.95;;;20.20;89.50;;;;;;5092127;28;20552;-73
2023/08/15 03:04:16;;;;;;;11.00;3.80;;;20.10;90.20;;;;;;5093689;28;20168;-73
2023/08/15 03:06:42;;;;;;;7.18;3.38;;;20.10;91.60;;;;;;5093643;28;20160;-73
2023/08/15 03:09:08;;;;;;;10.75;3.45;;;20.00;92.70;;;;;;5093672;28;20961;-74
2023/08/15 03:11:33;;;;;;;10.80;3.33;;;20.00;95.00;;;;;;5093558;28;20164;-73
2023/08/15 03:13:59;;;;;;;9.85;3.35;;;19.90;96.10;;;;;;5093543;28;20182;-74
2023/08/15 03:16:27;;;;;;;9.73;3.70;;;19.80;97.30;;;;;;5093283;28;20687;-73
2023/08/15 03:18:53;;;;;;;12.70;3.30;;;19.70;99.90;;;;;;5093429;28;20743;-72
2023/08/15 03:21:18;;;;;;;8.13;3.53;;;19.60;99.90;;;;;;5093523;28;20263;-72
2023/08/15 03:23:44;;;;;;;10.68;3.80;;;19.50;99.90;;;;;;5093532;28;20509;-73
2023/08/15 03:26:09;;;;;;;6.93;3.50;;;19.50;99.90;;;;;;5092259;28;20183;-73
2023/08/15 03:28:35;;;;;;;8.18;3.80;;;19.50;99.90;;;;;;5093381;28;20183;-73
2023/08/15 03:31:05;;;;;;;8.90;3.90;;;19.50;99.90;;;;;;5093052;28;20164;-73
2023/08/15 03:33:31;;;;;;;15.40;3.90;;;19.50;99.90;;;;;;5093139;28;20160;-73
2023/08/15 03:35:57;;;;;;;10.25;3.92;;;19.40;99.90;;;;;;5093145;28;20200;-73
2023/08/15 03:38:22;;;;;;;8.75;3.55;;;19.40;99.90;;;;;;5093168;28;20172;-73
2023/08/15 03:40:59;;;;;;;8.55;3.38;;;19.30;99.90;;;;;;5091711;28;20650;-74
2023/08/15 03:43:24;;;;;;;9.30;3.63;;;19.40;99.90;;;;;;5093090;28;20172;-74
2023/08/15 03:45:50;;;;;;;10.40;3.67;;;19.30;99.90;;;;;;5091526;28;20534;-73
2023/08/15 03:48:16;;;;;;;7.88;3.30;;;19.30;99.90;;;;;;5093037;28;20175;-72
2023/08/15 03:50:41;;;;;;;10.68;3.65;;;19.20;99.90;;;;;;5093001;28;20662;-73
2023/08/15 03:53:07;;;;;;;7.40;3.45;;;19.20;99.90;;;;;;5091554;28;20172;-73
2023/08/15 03:55:32;;;;;;;10.02;3.80;;;19.20;99.90;;;;;;5092011;28;20180;-72
2023/08/15 03:57:58;;;;;;;10.90;3.60;;;19.20;99.90;;;;;;5093127;28;20646;-73
2023/08/15 04:00:24;;;;;;;6.05;3.30;;;19.20;99.90;;;;;;5092834;28;20199;-73
2023/08/15 04:02:50;;;;;;;7.07;3.42;;;19.20;99.90;;;;;;5091675;28;20168;-73
2023/08/15 04:05:17;;;;;;;11.50;4.00;;;19.20;99.90;;;;;;5092821;28;20171;-73
2023/08/15 04:07:43;;;;;;;7.78;3.78;;;19.20;99.90;;;;;;5094743;28;20168;-73
2023/08/15 04:10:11;;;;;;;7.43;3.00;;;19.20;99.90;;;;;;5097028;28;20168;-73
2023/08/15 04:12:37;;;;;;;12.13;3.70;;;19.20;99.90;;;;;;5097133;28;20171;-73
2023/08/15 04:15:03;;;;;;;7.43;3.72;;;19.10;99.90;;;;;;5096555;28;20171;-73
2023/08/15 04:17:30;;;;;;;11.15;3.88;;;19.20;99.90;;;;;;5096669;28;20220;-73
2023/08/15 04:19:55;;;;;;;11.32;3.80;;;19.20;99.90;;;;;;5096748;28;20226;-74
2023/08/15 04:22:21;;;;;;;5.57;3.25;;;19.10;99.90;;;;;;5096679;28;20687;-74
2023/08/15 04:24:47;;;;;;;11.27;3.45;;;19.10;99.90;;;;;;5097065;28;20206;-74
2023/08/15 04:27:12;;;;;;;8.80;3.40;;;19.10;99.90;;;;;;5096165;28;20168;-74
2023/08/15 04:29:38;;;;;;;6.97;3.42;;;19.10;99.90;;;;;;5095184;28;20704;-73
2023/08/15 04:32:04;;;;;;;12.93;3.33;;;19.10;99.90;;;;;;5096753;28;20172;-74
2023/08/15 04:34:29;;;;;;;10.05;3.78;;;19.10;99.90;;;;;;5096565;28;20607;-73
2023/08/15 04:36:55;;;;;;;7.97;3.35;;;19.10;99.90;;;;;;5096545;28;20247;-75
2023/08/15 04:39:21;;;;;;;11.82;4.03;;;19.10;99.90;;;;;;5096166;28;20265;-73
2023/08/15 04:41:47;;;;;;;5.60;3.10;;;19.10;99.90;;;;;;5096520;28;20298;-73
2023/08/15 04:44:13;;;;;;;7.45;3.05;;;19.10;99.90;;;;;;5096136;28;20195;-73
2023/08/15 04:46:38;;;;;;;10.00;3.53;;;19.10;99.90;;;;;;5096341;28;20631;-73
2023/08/15 04:49:04;;;;;;;6.30;3.15;;;19.10;99.90;;;;;;5096097;28;20168;-73
2023/08/15 04:51:30;;;;;;;9.45;3.47;;;19.10;99.90;;;;;;5096015;28;20171;-74
2023/08/15 04:53:55;;;;;;;6.32;3.53;;;19.10;99.90;;;;;;5096202;28;20180;-73
2023/08/15 04:56:21;;;;;;;9.40;3.70;;;19.20;99.90;;;;;;5096068;28;20160;-73
2023/08/15 04:58:47;;;;;;;7.15;3.60;;;19.40;99.90;;;;;;5094403;28;20764;-73
2023/08/15 05:01:13;;;;;;;7.00;3.33;;;19.40;99.90;;;;;;5094789;28;20183;-74
2023/08/15 05:03:39;;;;;;;7.07;3.35;;;19.60;99.90;;;;;;5095811;28;20496;-74
2023/08/15 05:06:04;;;;;;;8.50;3.70;;;20.00;99.90;;;;;;5095846;28;20175;-74
2023/08/15 05:08:30;;;;;;;7.93;3.83;;;20.80;99.90;;;;;;5095588;28;20199;-74
2023/08/15 05:10:56;;;;;;;8.13;3.47;;;21.60;80.20;;;;;;5095867;28;20172;-74
2023/08/15 05:13:21;;;;;;;9.00;3.35;;;22.30;42.00;;;;;;5095629;28;20176;-74
2023/08/15 05:15:47;;;;;;;6.43;2.92;;;23.20;21.90;;;;;;5095627;28;20180;-75
2023/08/15 05:18:17;;;;;;;5.70;3.15;;;23.90;1.50;;;;;;5095045;28;20251;-75
2023/08/15 05:20:45;;;;;;;7.85;3.30;;;24.80;1.00;;;;;;5094921;28;20180;-75
2023/08/15 05:23:11;;;;;;;7.00;2.67;;;25.30;1.00;;;;;;5094416;28;20191;-75
2023/08/15 05:25:36;;;;;;;8.63;2.80;;;26.00;1.00;;;;;;5094268;28;20635;-75
2023/08/15 05:28:04;;;;;;;5.40;2.88;;;26.80;1.00;;;;;;5095390;28;20167;-76
2023/08/15 05:30:31;;;;;;;4.25;2.67;;;27.50;1.00;;;;;;5095705;28;20171;-75
2023/08/15 05:32:57;;;;;;;6.30;2.72;;;27.70;1.00;;;;;;5095618;28;20156;-75
2023/08/15 05:35:23;;;;;;;6.68;2.70;;;28.10;1.00;;;;;;5094907;28;20187;-75
2023/08/15 05:37:49;;;;;;;5.30;2.70;;;28.70;1.00;;;;;;5095210;28;20168;-76
2023/08/15 05:40:14;;;;;;;5.38;2.58;;;29.00;99.90;;;;;;5095103;28;20208;-75
2023/08/15 05:42:40;;;;;;;5.30;2.50;;;29.20;99.90;;;;;;5095164;28;20168;-76
2023/08/15 05:45:06;;;;;;;6.57;3.08;;;28.60;1.00;;;;;;5095082;28;20187;-75
2023/08/15 05:47:32;;;;;;;5.32;2.72;;;28.60;1.00;;;;;;5095058;28;20172;-77
2023/08/15 05:49:57;;;;;;;5.32;2.53;;;28.80;1.00;;;;;;5094894;28;20659;-76
2023/08/15 05:52:23;;;;;;;6.75;2.80;;;28.20;1.00;;;;;;5093822;28;20530;-76
2023/08/15 05:54:49;;;;;;;4.72;2.50;;;29.20;99.90;;;;;;5095137;28;20263;-75
2023/08/15 05:57:14;;;;;;;4.50;2.65;;;29.60;94.10;;;;;;5094452;28;20168;-76
2023/08/15 05:59:40;;;;;;;6.47;2.45;;;30.70;92.50;;;;;;5094727;28;20198;-75
2023/08/15 06:02:06;;;;;;;4.53;2.83;;;31.10;90.90;;;;;;5094692;28;20171;-75
2023/08/15 06:04:31;;;;;;;4.30;2.20;;;31.50;89.80;;;;;;5094707;28;20691;-75
2023/08/15 06:06:57;;;;;;;4.80;2.30;;;32.30;85.90;;;;;;5095029;28;20168;-75
2023/08/15 06:09:22;;;;;;;4.95;2.45;;;32.70;83.30;;;;;;5094765;28;20224;-75
2023/08/15 06:11:50;;;;;;;4.30;2.50;;;33.20;80.40;;;;;;5094218;28;20214;-75
2023/08/15 06:14:19;;;;;;;3.30;2.25;;;33.20;77.30;;;;;;5094410;28;20167;-74
2023/08/15 06:16:44;;;;;;;4.18;2.42;;;32.50;79.10;;;;;;5093852;28;20228;-75
2023/08/15 06:19:10;;;;;;;4.68;2.53;;;31.90;80.30;;;;;;5094238;28;20219;-75
2023/08/15 06:21:35;;;;;;;4.68;2.15;;;31.90;81.90;;;;;;5094312;28;20266;-75
2023/08/15 06:24:01;;;;;;;3.90;2.28;;;32.20;79.80;;;;;;5094441;28;20212;-75
2023/08/15 06:26:26;;;;;;;4.40;2.53;;;32.50;78.60;;;;;;5094153;28;20172;-76
2023/08/15 06:28:52;;;;;;;3.33;2.05;;;33.10;76.80;;;;;;5094420;28;20572;-74
2023/08/15 06:31:18;;;;;;;3.58;2.20;;;33.20;74.70;;;;;;5094175;28;20749;-74
2023/08/15 06:33:43;;;;;;;3.05;2.05;;;33.20;73.10;;;;;;5093930;28;20172;-74
2023/08/15 06:36:09;;;;;;;4.07;1.77;;;32.80;73.20;;;;;;5094364;28;20492;-74
2023/08/15 06:38:35;;;;;;;3.42;2.00;;;32.10;75.60;;;;;;5094240;28;20294;-75
2023/08/15 06:41:02;;;;;;;4.15;2.13;;;31.80;75.50;;;;;;5093644;28;20286;-75
2023/08/15 06:43:28;;;;;;;5.07;2.72;;;30.00;81.90;;;;;;5093962;28;20180;-75
2023/08/15 06:45:54;;;;;;;4.45;2.20;;;30.30;85.60;;;;;;5093985;28;20179;-75
2023/08/15 06:48:20;;;;;;;4.57;2.00;;;31.20;80.80;;;;;;5093320;28;20183;-75
2023/08/15 06:50:45;;;;;;;3.90;2.00;;;30.60;82.00;;;;;;5093397;28;20215;-75
2023/08/15 06:53:11;;;;;;;3.17;2.15;;;30.70;81.60;;;;;;5094195;28;20620;-75
2023/08/15 06:55:36;;;;;;;3.17;2.03;;;31.40;80.00;;;;;;5093427;28;20182;-75
2023/08/15 06:58:03;;;;;;;3.58;1.85;;;32.70;76.10;;;;;;5093623;28;20668;-75
2023/08/15 07:00:29;;;;;;;3.08;2.00;;;33.20;73.50;;;;;;5093713;28;20327;-75
2023/08/15 07:02:55;;;;;;;8.05;1.98;;;33.70;70.40;;;;;;5093495;28;20276;-75
2023/08/15 07:05:21;;;;;;;2.45;2.05;;;33.80;70.30;;;;;;5093631;28;20258;-75
2023/08/15 07:07:46;;;;;;;3.50;1.98;;;33.70;69.10;;;;;;5093806;28;20623;-75
2023/08/15 07:10:12;;;;;;;3.83;2.00;;;33.50;69.60;;;;;;5093144;28;20549;-75
2023/08/15 07:12:38;;;;;;;2.20;1.75;;;33.20;70.30;;;;;;5093271;28;20267;-75
2023/08/15 07:15:04;;;;;;;5.78;1.92;;;32.50;71.60;;;;;;5093383;28;20654;-76
2023/08/15 07:17:29;;;;;;;2.30;1.70;;;33.60;70.70;;;;;;5093249;28;20242;-76
2023/08/15 07:19:55;;;;;;;3.20;2.20;;;34.30;67.40;;;;;;5093158;28;20734;-76
2023/08/15 07:22:21;;;;;;;2.83;1.60;;;34.80;64.80;;;;;;5093293;28;20175;-76
2023/08/15 07:24:47;;;;;;;2.13;1.45;;;33.90;65.60;;;;;;5093018;28;20198;-76
2023/08/15 07:27:12;;;;;;;4.35;2.10;;;32.90;67.90;;;;;;5093104;28;20217;-76
2023/08/15 07:29:38;;;;;;;3.10;2.00;;;32.00;71.10;;;;;;5093544;28;20172;-75
2023/08/15 07:32:06;;;;;;;3.38;1.70;;;31.30;72.80;;;;;;5093565;28;20167;-75
2023/08/15 07:34:32;;;;;;;3.85;1.85;;;30.70;76.40;;;;;;5093005;28;20168;-75
2023/08/15 07:36:58;;;;;;;3.38;1.98;;;30.00;78.80;;;;;;5093363;28;20183;-75
2023/08/15 07:39:23;;;;;;;3.13;1.73;;;30.00;81.50;;;;;;5092474;28;20203;-75
2023/08/15 07:41:49;;;;;;;2.55;1.75;;;30.10;82.20;;;;;;5092851;28;20172;-75
2023/08/15 07:44:14;;;;;;;2.25;1.67;;;30.50;81.00;;;;;;5093200;28;20172;-75
2023/08/15 07:46:40;;;;;;;6.15;1.83;;;30.90;80.70;;;;;;5093077;28;20172;-75
2023/08/15 07:49:06;;;;;;;2.88;1.55;;;32.10;75.40;;;;;;5092663;28;20172;-76
2023/08/15 07:51:31;;;;;;;3.30;1.88;;;33.20;70.50;;;;;;5092827;28;20164;-76
2023/08/15 07:53:57;;;;;;;3.50;2.00;;;32.50;72.50;;;;;;5092806;28;20524;-76
2023/08/15 07:56:23;;;;;;;3.95;2.08;;;32.70;71.30;;;;;;5093297;28;20164;-76
2023/08/15 07:58:48;;;;;;;3.97;2.10;;;31.60;73.80;;;;;;5092874;28;20647;-76
2023/08/15 08:01:14;;;;;;;6.20;2.20;;;32.00;74.70;;;;;;5092777;28;20172;-77
2023/08/15 08:03:42;;;;;;;4.90;2.15;;;31.90;74.10;;;;;;5093225;28;20616;-77
2023/08/15 08:06:09;;;;;;;3.75;2.10;;;32.30;72.50;;;;;;5092906;28;20168;-77
2023/08/15 08:08:34;;;;;;;6.07;2.78;;;33.70;70.10;;;;;;5092290;28;20168;-78
2023/08/15 08:11:00;;;;;;;4.38;2.22;;;34.60;67.70;;;;;;5092815;28;20175;-77
2023/08/15 08:13:25;;;;;;;3.83;2.58;;;35.60;63.80;;;;;;5092972;28;20703;-77
2023/08/15 08:15:51;;;;;;;6.15;2.50;;;34.90;63.70;;;;;;5091343;28;20175;-77
2023/08/15 08:18:17;;;;;;;4.00;2.43;;;35.10;62.60;;;;;;5091052;28;20258;-77
2023/08/15 08:20:43;;;;;;;4.45;2.80;;;34.80;62.90;;;;;;5092912;28;20525;-79
2023/08/15 08:23:08;;;;;;;5.57;2.42;;;35.50;61.80;;;;;;5091930;28;20246;-81
2023/08/15 08:25:35;;;;;;;4.35;2.33;;;37.20;58.40;;;;;;5092852;28;20534;-79
2023/08/15 08:28:01;;;;;;;3.92;2.45;;;37.00;55.70;;;;;;5091199;28;20380;-77
2023/08/15 08:30:27;;;;;;;4.75;2.47;;;35.70;58.70;;;;;;5092511;28;20238;-77
2023/08/15 08:32:52;;;;;;;4.30;2.50;;;35.90;58.30;;;;;;5092803;28;20525;-80
2023/08/15 08:35:18;;;;;;;5.93;2.47;;;35.50;59.20;;;;;;5092608;28;20171;-78
2023/08/15 08:37:45;;;;;;;5.47;2.53;;;35.60;58.50;;;;;;5092022;28;20694;-79
2023/08/15 08:40:14;;;;;;;7.60;2.88;;;35.60;58.50;;;;;;5092332;28;20286;-78
2023/08/15 08:42:41;;;;;;;5.35;2.28;;;35.90;58.80;;;;;;5092580;28;20194;-78
2023/08/15 08:45:10;;;;;;;4.40;2.45;;;35.90;58.90;;;;;;5092792;28;20203;-79
2023/08/15 08:47:40;;;;;;;2.47;2.03;;;35.40;58.60;;;;;;5092753;28;20639;-78
2023/08/15 08:50:10;;;;;;;3.03;2.25;;;35.70;58.40;;;;;;5092085;28;20199;-78
2023/08/15 08:52:48;;;;;;;4.68;2.20;;;35.00;57.90;;;;;;5092453;28;20225;-78
2023/08/15 08:55:14;;;;;;;3.10;2.13;;;35.60;57.80;;;;;;5094787;28;20169;-78
2023/08/15 08:57:44;;;;;;;2.65;2.03;;;35.00;58.80;;;;;;5095956;28;20258;-79
2023/08/15 09:00:12;;;;;;;2.55;2.17;;;35.00;57.80;;;;;;5095338;28;20743;-80
2023/08/15 09:02:38;;;;;;;4.60;2.47;;;35.30;57.80;;;;;;5096225;28;20205;-78
2023/08/15 09:05:07;;;;;;;4.63;2.10;;;35.10;58.50;;;;;;5095341;28;20203;-80
2023/08/15 09:07:34;;;;;;;2.22;1.85;;;35.50;57.40;;;;;;5096260;28;20167;-79
2023/08/15 09:10:00;;;;;;;2.95;2.10;;;35.90;57.80;;;;;;5095496;28;20207;-79
2023/08/15 09:12:37;;;;;;;2.78;2.10;;;36.20;56.10;;;;;;5095646;28;20198;-79
2023/08/15 09:15:10;;;;;;;3.53;2.13;;;36.60;55.50;;;;;;5095476;28;20171;-79
2023/08/15 09:17:38;;;;;;;2.80;2.00;;;36.20;55.50;;;;;;5095265;28;20218;-78
2023/08/15 09:20:12;;;;;;;2.33;1.80;;;36.10;55.00;;;;;;5095303;28;20203;-79
2023/08/15 09:22:44;;;;;;;3.40;2.30;;;35.50;55.00;;;;;;5095556;28;20176;-80
2023/08/15 09:25:11;;;;;;;2.90;2.17;;;35.70;56.40;;;;;;5095874;28;20175;-78
2023/08/15 09:27:38;;;;;;;4.20;2.20;;;36.60;55.60;;;;;;5095587;28;20623;-81
2023/08/15 09:30:08;;;;;;;6.25;2.20;;;37.00;53.90;;;;;;5095526;28;20254;-79
2023/08/15 09:32:34;;;;;;;2.33;1.88;;;36.30;54.20;;;;;;5095386;28;20167;-78
2023/08/15 09:34:59;;;;;;;3.15;2.25;;;35.40;54.80;;;;;;5094892;28;20692;-79
2023/08/15 09:37:25;;;;;;;4.47;2.03;;;34.60;55.80;;;;;;5094050;28;20171;-77
2023/08/15 09:39:51;;;;;;;3.70;2.20;;;34.80;56.80;;;;;;5094833;28;20207;-79
2023/08/15 09:42:21;;;;;;;3.95;2.03;;;34.80;56.30;;;;;;5095507;28;20285;-77
2023/08/15 09:44:49;;;;;;;3.90;2.00;;;34.90;56.10;;;;;;5095126;28;20307;-80
2023/08/15 09:47:15;;;;;;;5.30;2.15;;;35.00;56.00;;;;;;5094522;28;20170;-80
2023/08/15 09:49:41;;;;;;;3.60;1.77;;;35.00;55.90;;;;;;5094256;28;20207;-79
2023/08/15 09:52:10;;;;;;;5.07;2.28;;;35.30;55.50;;;;;;5094806;28;20178;-79
2023/08/15 09:54:36;;;;;;;4.85;2.13;;;36.00;53.50;;;;;;5094945;28;20186;-80
2023/08/15 09:57:02;;;;;;;3.45;2.00;;;35.90;54.20;;;;;;5094872;28;20564;-79
2023/08/15 09:59:28;;;;;;;4.03;2.30;;;36.70;53.10;;;;;;5094480;28;20238;-80
2023/08/15 10:01:55;;;;;;;5.82;2.10;;;37.00;50.60;;;;;;5094028;28;20159;-78
2023/08/15 10:04:23;;;;;;;3.30;1.98;;;35.40;52.90;;;;;;5094145;28;20284;-78
2023/08/15 10:06:54;;;;;;;3.20;2.00;;;34.40;55.00;;;;;;5094220;28;20217;-78
2023/08/15 10:09:19;;;;;;;3.78;1.92;;;34.80;54.70;;;;;;5094417;28;20175;-78
2023/08/15 10:11:46;;;;;;;3.67;1.77;;;35.20;54.30;;;;;;5093281;28;20170;-77
2023/08/15 10:14:17;;;;;;;3.90;1.83;;;35.40;54.30;;;;;;5094036;28;20198;-77
2023/08/15 10:16:43;;;;;;;2.60;1.90;;;35.30;54.70;;;;;;5093997;28;20223;-78
2023/08/15 10:19:15;;;;;;;2.90;2.00;;;33.60;55.90;;;;;;5094436;28;20276;-77
2023/08/15 10:21:49;;;;;;;2.58;2.10;;;33.80;56.90;;;;;;5094471;28;20262;-77
2023/08/15 10:24:14;;;;;;;3.97;2.20;;;34.00;56.40;;;;;;5094269;28;20177;-77
2023/08/15 10:26:40;;;;;;;2.85;1.98;;;33.60;58.00;;;;;;5094510;28;20171;-77
2023/08/15 10:29:06;;;;;;;3.15;2.10;;;34.10;57.40;;;;;;5094164;28;20662;-77
2023/08/15 10:31:39;;;;;;;3.90;2.20;;;34.40;55.40;;;;;;5093674;28;20167;-76
2023/08/15 10:34:09;;;;;;;4.18;2.50;;;33.80;56.00;;;;;;5093965;28;20171;-76
2023/08/15 10:36:34;;;;;;;4.40;2.22;;;34.40;56.40;;;;;;5094010;28;20251;-75
2023/08/15 10:39:07;;;;;;;4.57;2.50;;;33.20;56.90;;;;;;5093722;28;20297;-74
2023/08/15 10:41:35;;;;;;;2.53;1.90;;;33.10;58.50;;;;;;5093764;28;20168;-76
2023/08/15 10:44:04;;;;;;;4.45;2.22;;;32.80;58.50;;;;;;5094117;28;20221;-74
2023/08/15 10:46:33;;;;;;;5.05;2.67;;;31.80;62.00;;;;;;5093521;28;20206;-75
2023/08/15 10:49:01;;;;;;;2.53;1.88;;;31.40;64.40;;;;;;5093371;28;20168;-75
2023/08/15 10:51:35;;;;;;;3.72;1.88;;;31.30;64.90;;;;;;5093913;28;20176;-76
2023/08/15 10:54:10;;;;;;;4.32;2.42;;;31.10;64.90;;;;;;5093773;28;20714;-75
2023/08/15 10:56:37;;;;;;;3.53;1.90;;;31.20;65.70;;;;;;5093675;28;20180;-76
2023/08/15 10:59:08;;;;;;;3.80;2.05;;;31.40;65.60;;;;;;5093863;28;20294;-76
2023/08/15 11:01:36;;;;;;;4.65;1.92;;;31.30;66.30;;;;;;5093076;28;20168;-75
2023/08/15 11:04:03;;;;;;;3.47;2.28;;;30.80;67.20;;;;;;5093506;28;20217;-75
2023/08/15 11:06:30;;;;;;;2.80;1.77;;;30.10;69.30;;;;;;5093468;28;20168;-75
2023/08/15 11:08:57;;;;;;;3.63;1.83;;;30.30;70.00;;;;;;5093259;28;20173;-74
2023/08/15 11:11:23;;;;;;;3.03;1.92;;;30.60;69.20;;;;;;5093301;28;20169;-75
2023/08/15 11:13:51;;;;;;;3.47;1.85;;;30.50;70.10;;;;;;5093334;28;20171;-75
2023/08/15 11:16:19;;;;;;;4.70;2.00;;;30.80;69.50;;;;;;5092277;28;20164;-74
2023/08/15 11:18:46;;;;;;;4.32;2.10;;;30.30;70.70;;;;;;5092675;28;20222;-75
2023/08/15 11:21:13;;;;;;;5.22;2.00;;;30.50;70.90;;;;;;5092963;28;20171;-75
2023/08/15 11:23:40;;;;;;;3.00;1.90;;;31.50;68.60;;;;;;5093311;28;20234;-75
2023/08/15 11:26:07;;;;;;;3.60;2.10;;;32.30;65.60;;;;;;5093294;28;20171;-75
2023/08/15 11:28:33;;;;;;;3.72;1.55;;;32.50;64.80;;;;;;5093313;28;20580;-76
2023/08/15 11:31:00;;;;;;;3.38;2.00;;;32.70;62.70;;;;;;5092911;28;20171;-74
2023/08/15 11:33:30;;;;;;;2.42;1.80;;;32.20;63.50;;;;;;5092281;28;20203;-75
2023/08/15 11:35:59;;;;;;;3.35;2.00;;;31.50;65.60;;;;;;5093138;28;20160;-74
2023/08/15 11:38:28;;;;;;;4.85;1.70;;;31.40;65.80;;;;;;5092695;28;20190;-74
2023/08/15 11:40:54;;;;;;;4.07;2.13;;;31.40;68.20;;;;;;5093059;28;20180;-74
2023/08/15 11:43:19;;;;;;;5.50;1.83;;;32.20;66.00;;;;;;5093211;28;20201;-75
2023/08/15 11:45:45;;;;;;;3.10;2.03;;;32.40;64.20;;;;;;5092264;28;20364;-74
2023/08/15 11:48:10;;;;;;;3.55;2.08;;;32.90;63.20;;;;;;5092700;28;20202;-74
2023/08/15 11:50:39;;;;;;;8.63;2.08;;;33.40;61.60;;;;;;5092817;28;20191;-72
2023/08/15 11:53:13;;;;;;;2.90;1.90;;;33.40;60.80;;;;;;5093096;28;20512;-73
2023/08/15 11:55:39;;;;;;;3.80;2.30;;;33.60;59.60;;;;;;5092795;28;20635;-73
2023/08/15 11:58:27;;;;;;;3.72;2.22;;;33.60;59.60;;;;;;5092760;28;20640;-72
2023/08/15 12:00:56;;;;;;;3.83;1.90;;;32.10;62.80;;;;;;5079480;28;20194;-72
2023/08/15 12:03:24;;;;;;;5.43;2.38;;;32.20;64.50;;;;;;5092473;28;20201;-73
2023/08/15 12:05:53;;;;;;;3.53;2.10;;;32.50;63.30;;;;;;5092804;28;20179;-72
2023/08/15 12:08:19;;;;;;;3.58;2.30;;;32.70;62.60;;;;;;5092694;28;20198;-74
2023/08/15 12:10:45;;;;;;;4.45;2.20;;;32.80;63.00;;;;;;5092527;28;20199;-73
2023/08/15 12:13:12;;;;;;;3.72;1.90;;;32.50;63.10;;;;;;5092088;28;20172;-74
2023/08/15 12:15:37;;;;;;;2.83;2.05;;;31.80;64.50;;;;;;5092085;28;20250;-73
2023/08/15 12:18:03;;;;;;;3.25;1.85;;;31.20;65.40;;;;;;5092006;28;20237;-73
2023/08/15 12:20:29;;;;;;;4.40;1.92;;;30.10;68.70;;;;;;5092275;28;20204;-74
2023/08/15 12:22:54;;;;;;;5.63;1.88;;;30.00;70.70;;;;;;5092247;28;20213;-73
2023/08/15 12:25:20;;;;;;;3.17;1.92;;;30.20;70.40;;;;;;5092897;28;20262;-73
2023/08/15 12:27:45;;;;;;;3.10;1.85;;;30.00;71.00;;;;;;5091776;28;20164;-72
2023/08/15 12:30:12;;;;;;;4.80;2.40;;;29.70;72.70;;;;;;5096864;28;20233;-74
2023/08/15 12:32:38;;;;;;;4.53;2.17;;;29.70;73.70;;;;;;5096593;28;20182;-73
2023/08/15 12:35:04;;;;;;;3.22;1.95;;;29.40;75.60;;;;;;5096396;28;20168;-72
2023/08/15 12:37:29;;;;;;;3.13;2.00;;;29.70;74.10;;;;;;5096129;28;20297;-73
2023/08/15 12:39:55;;;;;;;2.78;1.60;;;29.60;73.60;;;;;;5095182;28;20192;-73
2023/08/15 12:42:21;;;;;;;9.23;2.40;;;29.40;74.80;;;;;;5094637;28;20635;-73